Aviation Digital Data Service (ADDS)

Output produced by METARs form (0259 UTC 09 February 2016)
found at http://www.aviationweather.gov/adds/metars/
 
METAR text: KCCU 090256Z AUTO 28010G16KT 10SM CLR M05/M09 A3052 RMK AO2
Conditions at: KCCU (RED CLIFF PASS , CO, US) observed 0256 UTC 09 February 2016
Temperature: -5.0°C (23°F)
Dewpoint: -9.0°C (16°F) [RH = 73%]
Pressure (altimeter): 30.52 inches Hg (1033.6 mb)
Winds: from the W (280 degrees) at 12 MPH (10 knots; 5.2 m/s)
gusting to 18 MPH (16 knots; 8.3 m/s)
Visibility: 10 or more miles (16+ km)
Ceiling: at least 12,000 feet AGL
Clouds: sky clear below 12,000 feet AGL
Weather: automated observation with no human augmentation;
there may or may not be significant weather present at this time